Time;durP1;ratioP1;P1;durP2;ratioP2;P2;SDS_P1;SDS_P2;PMS_P1;PMS_P2;Temp;Humidity;BMP_temperature;BMP_pressure;BME280_temperature;BME280_humidity;BME280_pressure;Samples;Min_cycle;Max_cycle;Signal;HPM_P1;HPM_P2
2023/08/27 00:02:10;;;;;;;11.02;8.90;;;29.80;84.10;;;;;;5010047;28;20042;-80
2023/08/27 00:04:36;;;;;;;9.70;8.70;;;29.80;84.20;;;;;;5001080;28;20363;-80
2023/08/27 00:07:02;;;;;;;12.23;8.52;;;29.80;84.20;;;;;;5012297;28;20045;-79
2023/08/27 00:09:27;;;;;;;10.13;9.13;;;29.80;84.30;;;;;;5014000;28;20105;-79
2023/08/27 00:11:53;;;;;;;9.45;8.55;;;29.80;84.30;;;;;;5017332;28;20038;-80
2023/08/27 00:14:19;;;;;;;12.05;8.30;;;29.80;84.20;;;;;;5025768;28;20038;-79
2023/08/27 00:16:45;;;;;;;9.43;8.40;;;29.80;84.20;;;;;;5015933;28;20578;-80
2023/08/27 00:19:11;;;;;;;10.13;9.13;;;29.70;84.30;;;;;;4997283;28;20501;-81
2023/08/27 00:21:36;;;;;;;11.05;8.40;;;29.70;84.30;;;;;;5008106;28;20021;-81
2023/08/27 00:24:04;;;;;;;9.40;8.43;;;29.70;84.30;;;;;;5020494;28;20058;-82
2023/08/27 00:26:29;;;;;;;8.88;8.07;;;29.70;84.30;;;;;;5011615;28;20410;-81
2023/08/27 00:28:55;;;;;;;9.68;8.73;;;29.70;84.30;;;;;;5010007;28;20030;-81
2023/08/27 00:31:21;;;;;;;10.15;7.70;;;29.70;84.20;;;;;;5013308;28;20427;-82
2023/08/27 00:33:47;;;;;;;8.70;7.85;;;29.60;84.10;;;;;;5013422;28;20056;-80
2023/08/27 00:36:13;;;;;;;9.65;8.65;;;29.60;84.00;;;;;;5005560;28;20034;-79
2023/08/27 00:38:38;;;;;;;9.85;8.95;;;29.70;83.90;;;;;;5020581;28;20037;-80
2023/08/27 00:41:04;;;;;;;13.93;10.68;;;29.70;84.00;;;;;;5011773;28;20038;-80
2023/08/27 00:43:30;;;;;;;11.70;8.90;;;29.60;83.80;;;;;;5009571;28;20026;-81
2023/08/27 00:45:56;;;;;;;8.93;8.13;;;29.60;84.10;;;;;;5009307;28;20037;-80
2023/08/27 00:48:21;;;;;;;10.93;8.43;;;29.50;84.00;;;;;;5010303;28;20014;-81
2023/08/27 00:50:48;;;;;;;9.50;7.85;;;29.50;83.90;;;;;;5013800;28;20323;-81
2023/08/27 00:53:15;;;;;;;9.48;7.75;;;29.50;83.80;;;;;;5011635;28;20050;-81
2023/08/27 00:55:41;;;;;;;10.27;8.52;;;29.60;83.70;;;;;;5006923;28;20395;-81
2023/08/27 00:58:07;;;;;;;8.90;8.10;;;29.50;83.40;;;;;;5013243;28;20049;-80
2023/08/27 01:00:32;;;;;;;10.00;8.32;;;29.50;83.30;;;;;;5012621;28;20030;-81
2023/08/27 01:02:58;;;;;;;9.13;8.32;;;29.50;83.20;;;;;;5012015;28;20398;-81
2023/08/27 01:05:25;;;;;;;8.88;7.97;;;29.60;83.10;;;;;;5012939;28;20037;-81
2023/08/27 01:08:20;;;;;;;9.07;8.18;;;29.50;82.80;;;;;;5005900;28;20527;-80
2023/08/27 01:10:54;;;;;;;10.98;9.23;;;29.50;82.50;;;;;;5011039;28;20038;-80
2023/08/27 01:13:50;;;;;;;8.85;7.95;;;29.50;82.20;;;;;;4996392;28;20108;-79
2023/08/27 01:16:18;;;;;;;10.02;7.80;;;29.40;82.30;;;;;;5012791;28;20478;-80
2023/08/27 01:18:44;;;;;;;9.43;8.52;;;29.40;82.40;;;;;;5010746;28;20033;-80
2023/08/27 01:21:22;;;;;;;11.73;8.63;;;29.40;82.40;;;;;;5010965;28;20030;-80
2023/08/27 01:23:48;;;;;;;9.20;8.10;;;29.40;82.10;;;;;;5004960;28;20034;-80
2023/08/27 01:26:43;;;;;;;10.38;8.02;;;29.40;81.90;;;;;;5004486;28;20581;-78
2023/08/27 01:29:15;;;;;;;9.10;7.60;;;29.40;81.60;;;;;;5012125;28;20060;-79
2023/08/27 01:31:54;;;;;;;10.23;8.15;;;29.40;81.40;;;;;;5016581;28;20029;-80
2023/08/27 01:34:22;;;;;;;13.65;9.73;;;29.40;81.40;;;;;;5000351;28;20053;-80
2023/08/27 01:36:49;;;;;;;12.32;8.05;;;29.40;81.50;;;;;;4999585;28;20109;-80
2023/08/27 01:39:15;;;;;;;10.02;8.27;;;29.40;81.40;;;;;;5010453;28;20081;-83
2023/08/27 01:41:40;;;;;;;8.98;8.10;;;29.40;81.40;;;;;;5014947;28;20021;-82
2023/08/27 01:44:06;;;;;;;9.13;7.65;;;29.30;81.30;;;;;;5016317;28;20481;-81
2023/08/27 01:46:32;;;;;;;10.07;8.07;;;29.30;81.10;;;;;;5015986;28;20053;-81
2023/08/27 01:48:58;;;;;;;10.18;7.60;;;29.30;80.90;;;;;;5016396;28;20085;-82
2023/08/27 01:51:23;;;;;;;8.40;7.53;;;29.30;80.80;;;;;;5020077;28;20029;-81
2023/08/27 01:53:49;;;;;;;9.57;8.48;;;29.30;80.80;;;;;;5027068;28;20017;-82
2023/08/27 01:56:15;;;;;;;8.95;7.57;;;29.30;80.80;;;;;;5013136;28;20026;-82
2023/08/27 01:58:41;;;;;;;9.50;8.60;;;29.20;80.60;;;;;;5016525;28;20128;-81
2023/08/27 02:01:06;;;;;;;8.80;8.00;;;29.30;80.60;;;;;;5012554;28;20454;-78
2023/08/27 02:03:32;;;;;;;11.02;8.07;;;29.30;80.40;;;;;;5014345;28;20033;-78
2023/08/27 02:05:58;;;;;;;9.45;8.45;;;29.20;80.40;;;;;;4998257;28;20041;-78
2023/08/27 02:08:23;;;;;;;9.85;7.55;;;29.20;80.30;;;;;;4998610;28;20061;-80
2023/08/27 02:10:49;;;;;;;12.88;8.55;;;29.20;80.30;;;;;;5002710;28;20431;-81
2023/08/27 02:13:16;;;;;;;8.80;7.85;;;29.20;80.70;;;;;;5024219;28;20077;-82
2023/08/27 02:15:44;;;;;;;9.38;8.38;;;29.20;80.10;;;;;;5008223;28;20037;-81
2023/08/27 02:18:10;;;;;;;8.07;7.22;;;29.20;80.00;;;;;;5006963;28;20540;-83
2023/08/27 02:20:35;;;;;;;12.13;7.85;;;29.20;79.80;;;;;;4997728;28;20120;-81
2023/08/27 02:23:01;;;;;;;12.15;7.47;;;29.20;80.30;;;;;;5028808;28;20040;-81
2023/08/27 02:25:27;;;;;;;11.38;10.25;;;29.20;79.80;;;;;;5015959;28;20250;-82
2023/08/27 02:27:53;;;;;;;11.07;8.68;;;29.10;80.10;;;;;;5008473;28;20452;-82
2023/08/27 02:30:19;;;;;;;8.68;7.72;;;28.90;80.60;;;;;;5015968;28;20101;-82
2023/08/27 02:32:45;;;;;;;9.27;8.43;;;28.80;80.60;;;;;;5012551;28;20113;-82
2023/08/27 02:35:11;;;;;;;8.23;7.53;;;28.80;80.90;;;;;;5012401;28;20033;-82
2023/08/27 02:37:36;;;;;;;9.65;8.23;;;28.80;80.90;;;;;;4983838;28;20048;-81
2023/08/27 02:40:03;;;;;;;12.95;10.98;;;28.70;80.90;;;;;;5011593;28;20496;-81
2023/08/27 02:42:28;;;;;;;11.52;8.73;;;28.60;81.20;;;;;;5015117;28;20371;-81
2023/08/27 02:44:54;;;;;;;9.43;8.43;;;28.60;81.50;;;;;;5020213;28;20041;-80
2023/08/27 02:47:20;;;;;;;11.13;9.25;;;28.50;81.40;;;;;;5015457;28;20379;-80
2023/08/27 02:49:45;;;;;;;10.52;9.43;;;28.50;81.50;;;;;;5014980;28;20066;-82
2023/08/27 02:52:11;;;;;;;13.48;9.90;;;28.50;81.30;;;;;;5015822;28;20037;-82
2023/08/27 02:54:37;;;;;;;10.32;9.32;;;28.50;81.30;;;;;;5007238;28;20036;-80
2023/08/27 02:57:03;;;;;;;10.52;9.43;;;28.40;81.10;;;;;;5006390;28;20076;-81
2023/08/27 02:59:28;;;;;;;15.43;9.82;;;28.30;81.30;;;;;;5017889;28;20493;-79
2023/08/27 03:01:54;;;;;;;12.40;10.15;;;28.20;81.40;;;;;;5014811;28;20034;-79
2023/08/27 03:04:20;;;;;;;12.05;9.80;;;28.20;82.20;;;;;;5061093;23;20054;-79
2023/08/27 03:06:46;;;;;;;12.40;10.00;;;28.10;82.40;;;;;;4989593;28;20031;-79
2023/08/27 03:09:11;;;;;;;9.38;8.45;;;28.00;83.00;;;;;;4977707;28;20023;-79
2023/08/27 03:11:37;;;;;;;12.75;11.45;;;28.00;82.70;;;;;;4995423;28;20041;-79
2023/08/27 03:14:03;;;;;;;11.02;9.15;;;28.00;82.90;;;;;;4995015;28;20034;-80
2023/08/27 03:16:28;;;;;;;15.63;12.35;;;28.00;82.70;;;;;;4995317;28;20037;-79
2023/08/27 03:18:54;;;;;;;10.73;9.48;;;27.90;82.30;;;;;;4995464;28;20035;-78
2023/08/27 03:21:21;;;;;;;10.35;9.35;;;27.90;82.30;;;;;;4995708;28;20046;-79
2023/08/27 03:23:47;;;;;;;19.83;10.00;;;27.80;82.50;;;;;;5000359;28;20100;-79
2023/08/27 03:26:13;;;;;;;13.50;11.43;;;27.90;82.40;;;;;;5004503;28;20034;-79
2023/08/27 03:28:38;;;;;;;10.40;9.40;;;27.80;82.40;;;;;;4995563;28;20093;-78
2023/08/27 03:31:04;;;;;;;10.32;9.30;;;27.80;82.60;;;;;;5007581;28;20041;-79
2023/08/27 03:33:31;;;;;;;15.00;11.75;;;27.80;82.70;;;;;;4995537;28;20034;-79
2023/08/27 03:35:58;;;;;;;14.48;11.27;;;27.60;82.70;;;;;;4995369;28;20030;-79
2023/08/27 03:38:24;;;;;;;10.60;9.57;;;27.60;82.90;;;;;;4995428;28;21089;-80
2023/08/27 03:40:52;;;;;;;12.90;10.90;;;27.60;82.70;;;;;;4991722;28;20043;-79
2023/08/27 03:43:18;;;;;;;12.98;10.38;;;27.70;82.30;;;;;;4977799;28;20042;-79
2023/08/27 03:45:44;;;;;;;14.75;11.48;;;27.70;81.90;;;;;;4994446;28;21584;-79
2023/08/27 03:48:10;;;;;;;10.48;9.48;;;27.70;82.00;;;;;;4995109;28;20459;-79
2023/08/27 03:50:36;;;;;;;13.40;11.88;;;27.60;82.30;;;;;;4994677;28;20045;-79
2023/08/27 03:53:04;;;;;;;12.57;10.52;;;27.60;82.80;;;;;;4977466;28;20022;-80
2023/08/27 03:55:29;;;;;;;10.55;9.45;;;27.60;83.00;;;;;;4993948;28;20038;-79
2023/08/27 03:57:56;;;;;;;11.77;9.40;;;27.60;82.80;;;;;;4994608;28;20034;-79
2023/08/27 04:00:22;;;;;;;10.43;9.27;;;27.70;82.70;;;;;;4997607;28;20109;-80
2023/08/27 04:02:47;;;;;;;12.10;9.82;;;27.70;82.50;;;;;;4994449;28;20034;-80
2023/08/27 04:05:13;;;;;;;11.90;9.85;;;27.60;82.60;;;;;;4990064;28;20046;-80
2023/08/27 04:07:39;;;;;;;9.52;8.65;;;27.70;82.80;;;;;;4994471;28;20084;-80
2023/08/27 04:10:05;;;;;;;15.85;11.95;;;27.70;82.70;;;;;;4979612;28;20125;-79
2023/08/27 04:12:34;;;;;;;9.90;8.90;;;27.70;83.30;;;;;;4976973;28;20320;-78
2023/08/27 04:14:59;;;;;;;10.50;8.55;;;27.60;83.10;;;;;;4992674;28;20034;-79
2023/08/27 04:17:25;;;;;;;13.18;10.10;;;27.60;83.00;;;;;;4994658;28;20356;-79
2023/08/27 04:19:55;;;;;;;14.68;12.38;;;27.70;83.10;;;;;;4994282;28;20041;-79
2023/08/27 04:22:21;;;;;;;10.13;9.02;;;27.60;82.40;;;;;;4994813;28;20097;-78
2023/08/27 04:24:47;;;;;;;10.43;9.13;;;27.60;82.40;;;;;;4993632;28;20038;-78
2023/08/27 04:27:13;;;;;;;9.13;8.25;;;27.50;82.30;;;;;;4975775;28;20019;-78
2023/08/27 04:29:39;;;;;;;10.63;9.05;;;27.50;82.30;;;;;;4973318;28;20034;-79
2023/08/27 04:32:05;;;;;;;12.93;9.73;;;27.50;82.20;;;;;;4986545;28;20039;-78
2023/08/27 04:34:30;;;;;;;11.15;9.90;;;27.50;81.60;;;;;;4980935;28;20031;-79
2023/08/27 04:36:56;;;;;;;10.75;9.30;;;27.50;81.70;;;;;;4974944;28;20038;-78
2023/08/27 04:39:37;;;;;;;13.60;10.02;;;27.60;81.60;;;;;;4991500;28;20034;-80
2023/08/27 04:42:03;;;;;;;14.27;8.77;;;27.70;81.50;;;;;;4984921;28;20077;-80
2023/08/27 04:44:31;;;;;;;14.82;10.68;;;27.70;81.30;;;;;;4993173;28;20034;-79
2023/08/27 04:46:56;;;;;;;8.30;7.50;;;27.70;81.60;;;;;;4993683;28;20536;-79
2023/08/27 04:49:22;;;;;;;9.73;8.73;;;27.80;80.90;;;;;;4993184;28;20078;-78
2023/08/27 04:51:48;;;;;;;9.18;8.23;;;27.80;80.70;;;;;;4989081;28;20388;-80
2023/08/27 04:54:17;;;;;;;10.77;8.55;;;27.90;80.80;;;;;;4992889;28;20124;-81
2023/08/27 04:56:43;;;;;;;9.43;8.43;;;28.00;80.60;;;;;;4992579;28;20026;-81
2023/08/27 04:59:08;;;;;;;13.15;10.35;;;28.00;80.40;;;;;;4994002;28;20038;-81
2023/08/27 05:01:34;;;;;;;9.75;8.52;;;28.00;79.90;;;;;;4992508;28;20466;-81
2023/08/27 05:04:00;;;;;;;10.70;9.60;;;27.90;80.00;;;;;;4993515;28;20033;-80
2023/08/27 05:06:26;;;;;;;13.93;9.13;;;27.90;80.10;;;;;;4975218;28;20034;-80
2023/08/27 05:08:52;;;;;;;13.32;8.32;;;27.80;80.20;;;;;;4995075;28;20386;-80
2023/08/27 05:11:18;;;;;;;13.52;10.45;;;27.80;80.30;;;;;;4992521;28;20038;-80
2023/08/27 05:13:43;;;;;;;11.40;9.32;;;27.70;80.30;;;;;;4967752;28;20042;-80
2023/08/27 05:16:09;;;;;;;12.60;9.45;;;27.70;80.40;;;;;;4989436;28;20457;-80
2023/08/27 05:18:35;;;;;;;10.20;8.57;;;27.70;80.40;;;;;;4996855;28;20118;-81
2023/08/27 05:21:00;;;;;;;8.88;8.07;;;27.70;80.40;;;;;;4979610;28;20042;-81
2023/08/27 05:23:26;;;;;;;11.55;10.00;;;27.70;80.70;;;;;;4979316;28;20041;-82
2023/08/27 05:25:52;;;;;;;9.65;8.07;;;27.70;81.10;;;;;;4980743;28;20022;-82
2023/08/27 05:28:18;;;;;;;10.88;9.05;;;27.70;81.20;;;;;;4998325;28;20049;-80
2023/08/27 05:30:45;;;;;;;10.32;8.45;;;27.70;81.00;;;;;;4996105;28;20097;-84
2023/08/27 05:33:10;;;;;;;12.50;8.30;;;27.70;80.90;;;;;;4996943;28;20060;-83
2023/08/27 05:35:37;;;;;;;9.35;7.82;;;27.80;80.90;;;;;;5002116;28;20509;-83
2023/08/27 05:38:03;;;;;;;8.90;8.10;;;27.90;80.50;;;;;;5002893;28;20061;-83
2023/08/27 05:40:28;;;;;;;11.40;8.27;;;27.90;80.30;;;;;;4996270;28;20057;-81
2023/08/27 05:42:54;;;;;;;10.00;8.50;;;28.00;80.00;;;;;;4994148;28;20117;-81
2023/08/27 05:45:20;;;;;;;13.55;8.68;;;28.00;79.90;;;;;;4976304;28;20026;-81
2023/08/27 05:47:45;;;;;;;10.73;8.75;;;28.00;79.70;;;;;;4990487;28;20041;-82
2023/08/27 05:50:11;;;;;;;9.27;8.32;;;28.10;79.50;;;;;;4990721;28;20026;-82
2023/08/27 05:52:37;;;;;;;10.77;9.70;;;28.10;79.40;;;;;;4993699;28;20133;-81
2023/08/27 05:55:03;;;;;;;10.65;8.85;;;28.00;78.90;;;;;;4994424;28;20490;-83
2023/08/27 05:57:28;;;;;;;10.90;8.32;;;28.00;79.30;;;;;;4992786;28;20549;-82
2023/08/27 05:59:54;;;;;;;10.70;8.35;;;27.90;79.50;;;;;;4977949;28;20030;-82
2023/08/27 06:02:22;;;;;;;9.38;8.48;;;27.90;79.60;;;;;;4985181;28;20053;-83
2023/08/27 06:04:47;;;;;;;12.60;8.68;;;27.90;79.60;;;;;;4996123;28;20038;-82
2023/08/27 06:07:13;;;;;;;10.65;9.05;;;28.00;79.60;;;;;;5015964;28;20436;-82
2023/08/27 06:09:42;;;;;;;11.45;8.57;;;28.00;79.50;;;;;;5016444;28;20025;-82
2023/08/27 06:12:08;;;;;;;12.90;8.68;;;28.00;79.60;;;;;;5001561;28;20038;-82
2023/08/27 06:14:34;;;;;;;9.73;8.65;;;28.00;79.60;;;;;;5004187;28;20030;-82
2023/08/27 06:17:00;;;;;;;10.00;9.00;;;28.00;79.50;;;;;;4995268;28;20034;-82
2023/08/27 06:19:25;;;;;;;10.02;9.02;;;28.10;79.60;;;;;;4979277;28;20463;-82
2023/08/27 06:21:51;;;;;;;9.18;8.27;;;28.10;79.30;;;;;;4999554;28;20034;-82
2023/08/27 06:24:17;;;;;;;10.80;8.98;;;28.10;79.20;;;;;;5015649;28;20502;-82
2023/08/27 06:26:42;;;;;;;11.80;8.77;;;28.20;79.20;;;;;;5015688;28;20428;-82
2023/08/27 06:29:08;;;;;;;10.07;9.10;;;28.20;79.20;;;;;;4999996;28;20034;-82
2023/08/27 06:31:34;;;;;;;9.18;8.27;;;28.20;79.00;;;;;;4996910;28;20498;-82
2023/08/27 06:34:00;;;;;;;11.32;8.70;;;28.20;78.90;;;;;;4979049;28;20686;-76
2023/08/27 06:36:26;;;;;;;12.40;8.60;;;28.10;78.80;;;;;;4978691;28;20042;-76
2023/08/27 06:38:51;;;;;;;9.18;8.27;;;28.20;78.80;;;;;;4995562;28;20031;-75
2023/08/27 06:41:17;;;;;;;10.80;9.25;;;28.20;78.80;;;;;;4996399;28;20045;-75
2023/08/27 06:43:43;;;;;;;9.45;8.55;;;28.20;78.60;;;;;;4996289;28;20058;-76
2023/08/27 06:46:11;;;;;;;10.75;9.18;;;28.20;78.60;;;;;;4978827;28;20030;-75
2023/08/27 06:48:37;;;;;;;10.57;9.02;;;28.20;78.60;;;;;;4998305;28;20026;-76
2023/08/27 06:51:03;;;;;;;9.93;9.02;;;28.20;78.50;;;;;;5007095;28;20034;-76
2023/08/27 06:53:28;;;;;;;9.77;8.38;;;28.20;78.60;;;;;;4996422;28;20022;-76
2023/08/27 06:55:54;;;;;;;9.20;8.30;;;28.20;79.00;;;;;;4992917;28;20030;-76
2023/08/27 06:58:23;;;;;;;9.27;8.38;;;28.30;78.60;;;;;;4995037;28;20034;-76
2023/08/27 07:00:49;;;;;;;11.70;8.23;;;28.30;78.60;;;;;;5006903;28;20319;-76
2023/08/27 07:03:15;;;;;;;9.63;8.63;;;28.30;78.60;;;;;;4996195;28;20045;-76
2023/08/27 07:05:40;;;;;;;9.27;8.38;;;28.30;78.40;;;;;;4995762;28;20030;-76
2023/08/27 07:08:06;;;;;;;9.77;8.85;;;28.40;78.60;;;;;;4994431;28;20536;-76
2023/08/27 07:10:32;;;;;;;10.73;9.63;;;28.40;78.40;;;;;;5000691;28;20045;-76
2023/08/27 07:12:58;;;;;;;11.98;8.77;;;28.40;78.40;;;;;;4984956;28;20037;-75
2023/08/27 07:15:24;;;;;;;9.88;8.88;;;28.40;78.30;;;;;;4995461;28;20034;-76
2023/08/27 07:17:49;;;;;;;10.38;9.13;;;28.40;78.40;;;;;;4999001;28;20034;-75
2023/08/27 07:20:15;;;;;;;11.30;9.00;;;28.50;77.90;;;;;;4983385;28;20530;-75
2023/08/27 07:22:41;;;;;;;10.02;8.07;;;28.50;78.00;;;;;;4983142;28;20027;-75
2023/08/27 07:25:09;;;;;;;12.02;9.43;;;28.50;78.10;;;;;;4965519;28;20066;-76
2023/08/27 07:27:37;;;;;;;8.65;7.85;;;28.50;78.40;;;;;;4974073;28;20554;-76
2023/08/27 07:30:08;;;;;;;9.52;8.63;;;28.40;78.20;;;;;;4979175;28;20029;-76
2023/08/27 07:32:34;;;;;;;10.38;9.38;;;28.40;78.30;;;;;;4995102;28;20050;-76
2023/08/27 07:35:00;;;;;;;10.63;8.77;;;28.40;78.30;;;;;;4981919;28;20054;-75
2023/08/27 07:37:25;;;;;;;16.92;9.95;;;28.50;78.60;;;;;;4974936;28;20070;-76
2023/08/27 07:39:54;;;;;;;10.05;8.68;;;28.50;78.70;;;;;;4994181;28;20037;-76
2023/08/27 07:42:21;;;;;;;10.10;9.10;;;28.50;78.70;;;;;;4984886;28;20059;-76
2023/08/27 07:44:47;;;;;;;12.30;11.10;;;28.50;78.80;;;;;;4990079;28;20022;-76
2023/08/27 07:47:16;;;;;;;10.10;8.70;;;28.40;78.40;;;;;;4996559;28;20041;-76
2023/08/27 07:49:42;;;;;;;10.35;8.60;;;28.30;78.70;;;;;;4995900;28;20030;-76
2023/08/27 07:52:08;;;;;;;9.73;8.20;;;28.30;79.00;;;;;;4996369;28;20109;-76
2023/08/27 07:54:34;;;;;;;9.90;8.27;;;28.40;79.10;;;;;;4992356;28;20061;-76
2023/08/27 07:56:59;;;;;;;9.73;8.68;;;28.40;79.10;;;;;;4998892;28;20033;-76
2023/08/27 07:59:25;;;;;;;9.35;8.38;;;28.50;78.80;;;;;;5001172;28;20026;-76
2023/08/27 08:01:51;;;;;;;13.88;9.80;;;28.50;78.80;;;;;;5000294;28;20034;-76
2023/08/27 08:04:17;;;;;;;11.60;9.05;;;28.60;78.70;;;;;;4998109;28;20039;-76
2023/08/27 08:06:43;;;;;;;11.73;10.35;;;28.70;78.60;;;;;;4994615;28;20121;-76
2023/08/27 08:09:08;;;;;;;11.15;8.73;;;28.70;78.60;;;;;;4984437;28;20113;-76
2023/08/27 08:11:34;;;;;;;16.02;8.68;;;28.70;78.70;;;;;;4998943;28;20041;-76
2023/08/27 08:14:00;;;;;;;9.88;8.88;;;28.80;78.80;;;;;;4995128;28;20049;-76
2023/08/27 08:16:25;;;;;;;8.43;7.65;;;28.80;78.80;;;;;;4982469;28;20459;-76
2023/08/27 08:18:51;;;;;;;11.10;8.45;;;28.80;78.70;;;;;;4986154;28;20586;-76
2023/08/27 08:21:19;;;;;;;11.60;8.90;;;28.90;78.80;;;;;;4989441;28;20045;-76
2023/08/27 08:23:45;;;;;;;14.32;9.38;;;29.00;78.90;;;;;;4986947;28;20022;-76
2023/08/27 08:26:11;;;;;;;13.65;8.98;;;29.10;78.70;;;;;;4992408;28;20073;-77
2023/08/27 08:28:37;;;;;;;12.80;9.25;;;29.00;78.60;;;;;;4994308;28;20050;-78
2023/08/27 08:31:03;;;;;;;9.65;8.57;;;29.00;79.00;;;;;;4993479;28;20035;-78
2023/08/27 08:33:29;;;;;;;9.18;8.38;;;29.00;79.10;;;;;;4995085;28;20026;-78
2023/08/27 08:35:55;;;;;;;9.13;7.97;;;29.00;79.50;;;;;;4998423;28;20041;-78
2023/08/27 08:38:21;;;;;;;11.90;9.70;;;29.00;79.50;;;;;;4976534;28;20045;-78
2023/08/27 08:40:52;;;;;;;11.00;9.07;;;28.90;79.70;;;;;;4991785;28;20041;-78
2023/08/27 08:43:27;;;;;;;9.45;8.18;;;29.00;80.00;;;;;;4991075;28;20100;-78
2023/08/27 08:46:03;;;;;;;10.70;9.63;;;29.00;80.10;;;;;;4975459;28;20062;-79
2023/08/27 08:48:33;;;;;;;8.95;8.02;;;29.20;80.70;;;;;;4993121;28;20056;-78
2023/08/27 08:51:03;;;;;;;10.13;9.07;;;29.20;80.30;;;;;;4965751;28;20030;-78
2023/08/27 08:53:34;;;;;;;9.63;8.63;;;29.40;80.20;;;;;;4991935;28;20467;-79
2023/08/27 08:56:04;;;;;;;11.70;10.25;;;29.30;80.10;;;;;;4992644;28;20045;-78
2023/08/27 08:58:34;;;;;;;11.23;9.73;;;29.30;80.40;;;;;;4991738;28;20545;-79
2023/08/27 09:01:00;;;;;;;12.05;9.15;;;29.30;80.20;;;;;;4989476;28;20137;-78
2023/08/27 09:03:27;;;;;;;10.00;8.65;;;29.40;80.50;;;;;;4974314;28;20479;-82
2023/08/27 09:05:54;;;;;;;10.57;9.25;;;29.50;80.80;;;;;;4987207;28;20376;-82
2023/08/27 09:08:20;;;;;;;10.20;8.27;;;29.60;80.80;;;;;;4991834;28;20034;-82
2023/08/27 09:10:49;;;;;;;9.93;8.93;;;29.70;80.50;;;;;;4994570;28;20517;-81
2023/08/27 09:13:18;;;;;;;9.95;8.95;;;29.90;80.60;;;;;;4991001;28;20038;-82
2023/08/27 09:15:44;;;;;;;11.65;8.75;;;30.00;80.60;;;;;;4991803;28;20537;-81
2023/08/27 09:18:10;;;;;;;10.45;9.35;;;30.20;80.70;;;;;;4990040;28;20023;-81
2023/08/27 10:11:37;;;;;;;9.70;8.68;;;31.10;80.50;;;;;;5012946;28;20204;-82
2023/08/27 10:14:16;;;;;;;8.68;7.88;;;31.10;80.40;;;;;;5011910;28;20081;-82
2023/08/27 10:16:42;;;;;;;10.68;8.52;;;31.20;80.40;;;;;;5016880;28;20492;-82
2023/08/27 10:19:09;;;;;;;9.95;8.07;;;31.20;80.20;;;;;;4992283;28;20034;-81
2023/08/27 10:21:36;;;;;;;9.63;8.50;;;31.30;80.20;;;;;;5016786;28;20082;-81
2023/08/27 10:24:03;;;;;;;14.63;8.75;;;31.40;80.00;;;;;;4998571;28;20597;-82
2023/08/27 10:26:28;;;;;;;8.80;8.00;;;31.40;80.20;;;;;;5009865;28;20026;-82
2023/08/27 10:28:55;;;;;;;11.98;8.32;;;31.50;80.30;;;;;;5017855;28;20164;-82
2023/08/27 10:31:21;;;;;;;10.30;8.50;;;31.50;80.50;;;;;;5016139;28;20065;-82
2023/08/27 10:33:47;;;;;;;8.95;8.00;;;31.50;80.00;;;;;;5015334;28;20061;-82
2023/08/27 10:36:45;;;;;;;11.20;8.65;;;31.50;79.90;;;;;;5014917;28;20034;-75
2023/08/27 10:39:13;;;;;;;10.57;7.90;;;31.60;80.30;;;;;;4964998;28;20049;-75
2023/08/27 10:41:41;;;;;;;12.25;9.70;;;31.70;80.50;;;;;;5009818;28;20117;-75
2023/08/27 10:44:10;;;;;;;11.30;8.68;;;31.70;80.50;;;;;;5014716;28;20048;-75
2023/08/27 10:46:36;;;;;;;13.65;8.77;;;31.80;80.40;;;;;;4995939;28;20026;-75
2023/08/27 10:49:16;;;;;;;12.98;9.18;;;31.90;80.20;;;;;;5015987;28;20030;-75
2023/08/27 10:51:42;;;;;;;13.65;9.90;;;32.00;80.00;;;;;;5010959;28;20089;-75
2023/08/27 10:54:08;;;;;;;10.40;8.93;;;32.10;79.60;;;;;;5013761;28;20033;-75
2023/08/27 10:56:37;;;;;;;10.98;9.13;;;32.00;79.30;;;;;;5006738;28;20030;-75
2023/08/27 10:59:10;;;;;;;13.40;10.27;;;32.20;79.50;;;;;;5008942;28;20030;-75
2023/08/27 11:02:07;;;;;;;11.40;8.63;;;32.30;79.60;;;;;;4984519;28;20486;-75
2023/08/27 11:04:44;;;;;;;10.93;9.65;;;32.40;78.80;;;;;;5015344;28;20041;-75
2023/08/27 11:07:11;;;;;;;11.07;9.02;;;32.50;79.00;;;;;;5008400;28;20018;-75
2023/08/27 11:09:53;;;;;;;10.48;8.68;;;32.50;78.90;;;;;;5010208;28;20049;-75
2023/08/27 11:12:24;;;;;;;13.43;10.93;;;32.80;78.30;;;;;;5015806;28;20033;-83
2023/08/27 11:14:51;;;;;;;10.38;9.35;;;33.00;78.10;;;;;;5016294;28;20037;-76
2023/08/27 11:17:28;;;;;;;12.93;9.73;;;33.20;77.80;;;;;;5021716;28;20068;-76
2023/08/27 11:19:57;;;;;;;10.00;8.88;;;33.20;77.10;;;;;;5012922;28;20117;-76
2023/08/27 11:22:23;;;;;;;10.45;9.32;;;33.30;77.10;;;;;;4994122;28;20473;-75
2023/08/27 11:24:54;;;;;;;13.85;9.82;;;33.20;77.10;;;;;;5014402;28;20486;-78
2023/08/27 11:27:23;;;;;;;12.20;8.95;;;33.10;76.80;;;;;;5010990;28;20025;-77
2023/08/27 11:29:52;;;;;;;10.38;8.63;;;33.10;77.00;;;;;;5013331;28;20053;-78
2023/08/27 11:32:20;;;;;;;13.32;8.32;;;33.00;77.00;;;;;;5010689;28;20116;-83
2023/08/27 11:34:49;;;;;;;9.90;8.70;;;33.00;77.10;;;;;;5003778;28;20121;-78
2023/08/27 11:37:17;;;;;;;11.13;9.88;;;33.20;77.30;;;;;;5014324;28;20021;-84
2023/08/27 11:39:48;;;;;;;10.82;9.50;;;33.30;77.30;;;;;;4991850;28;20053;-85
2023/08/27 11:42:15;;;;;;;9.68;8.77;;;33.40;76.20;;;;;;5013459;28;20474;-85
2023/08/27 11:44:55;;;;;;;9.80;8.40;;;33.60;76.40;;;;;;5015206;28;20462;-77
2023/08/27 11:47:22;;;;;;;12.10;9.50;;;33.80;75.90;;;;;;5011909;28;20060;-77
2023/08/27 11:49:51;;;;;;;9.95;8.68;;;33.90;75.80;;;;;;5013895;28;20056;-78
2023/08/27 11:52:17;;;;;;;9.82;8.32;;;34.00;75.70;;;;;;5010611;28;20478;-77
2023/08/27 11:54:43;;;;;;;15.55;10.73;;;34.10;75.20;;;;;;4987169;28;20084;-78
2023/08/27 11:57:09;;;;;;;9.98;8.63;;;34.10;74.40;;;;;;5010186;28;20032;-77
2023/08/27 11:59:40;;;;;;;13.20;8.55;;;33.80;75.10;;;;;;5009672;28;20038;-78
2023/08/27 12:02:11;;;;;;;12.88;8.80;;;33.70;75.10;;;;;;5011071;28;20026;-77
2023/08/27 12:04:38;;;;;;;10.02;8.55;;;33.60;75.20;;;;;;4993953;28;20389;-77
2023/08/27 12:07:05;;;;;;;10.77;8.88;;;33.50;75.70;;;;;;4992845;28;20109;-84
2023/08/27 12:09:35;;;;;;;14.52;8.10;;;33.40;76.20;;;;;;5011198;28;20030;-85
2023/08/27 12:12:03;;;;;;;12.05;8.50;;;33.40;76.60;;;;;;5012593;28;21219;-85
2023/08/27 12:14:29;;;;;;;11.23;9.00;;;33.40;77.00;;;;;;5011748;28;20079;-85
2023/08/27 12:17:07;;;;;;;9.70;8.70;;;33.30;77.40;;;;;;4994498;28;20128;-83
2023/08/27 12:19:35;;;;;;;10.18;8.35;;;33.30;77.40;;;;;;5011639;28;20112;-85
2023/08/27 12:22:00;;;;;;;13.90;9.88;;;33.30;77.70;;;;;;5011660;28;20025;-85
2023/08/27 12:24:31;;;;;;;10.82;9.02;;;33.30;78.40;;;;;;5011540;28;20034;-85
2023/08/27 12:27:02;;;;;;;11.23;8.70;;;33.40;78.50;;;;;;4993566;28;20022;-85
2023/08/27 12:29:33;;;;;;;9.63;8.63;;;33.40;78.50;;;;;;5007821;28;20068;-84
2023/08/27 12:32:16;;;;;;;10.02;9.07;;;33.50;78.60;;;;;;5011828;28;20137;-86
2023/08/27 12:34:47;;;;;;;10.48;8.88;;;33.70;78.00;;;;;;5011372;28;20088;-84
2023/08/27 12:37:14;;;;;;;12.38;9.05;;;33.80;78.00;;;;;;5010497;28;20054;-85
2023/08/27 12:39:41;;;;;;;10.45;8.60;;;34.10;77.60;;;;;;5009036;28;20095;-86
2023/08/27 12:42:08;;;;;;;13.27;8.90;;;34.40;76.00;;;;;;5010307;28;20083;-85
2023/08/27 12:44:35;;;;;;;10.13;8.60;;;34.70;75.10;;;;;;4993179;28;20025;-86
2023/08/27 12:47:01;;;;;;;8.25;7.45;;;35.00;74.30;;;;;;5010753;28;20049;-86
2023/08/27 12:49:28;;;;;;;8.25;7.28;;;35.30;73.90;;;;;;5011843;28;20115;-86
2023/08/27 12:51:54;;;;;;;8.82;7.97;;;35.50;72.80;;;;;;5011881;28;20026;-85
2023/08/27 12:54:36;;;;;;;8.48;7.22;;;35.60;71.10;;;;;;4991441;28;20061;-86
2023/08/27 12:57:02;;;;;;;8.13;6.80;;;35.80;70.10;;;;;;5011021;28;20032;-85
2023/08/27 12:59:28;;;;;;;9.43;7.80;;;36.00;70.10;;;;;;5012214;28;20025;-77
2023/08/27 13:01:53;;;;;;;10.55;7.10;;;36.00;69.20;;;;;;5008455;28;20113;-77
2023/08/27 13:04:25;;;;;;;10.45;7.15;;;36.10;69.00;;;;;;5011714;28;20570;-78
2023/08/27 13:06:52;;;;;;;9.18;6.90;;;36.20;67.60;;;;;;5008458;28;20386;-79
2023/08/27 13:09:17;;;;;;;8.20;6.28;;;36.20;67.30;;;;;;5010141;28;20030;-79
2023/08/27 13:11:43;;;;;;;7.53;6.25;;;36.30;66.20;;;;;;4993441;28;20030;-79
2023/08/27 13:14:09;;;;;;;8.00;5.63;;;36.30;65.60;;;;;;4993416;28;20022;-79
2023/08/27 13:16:38;;;;;;;6.70;5.80;;;36.30;65.90;;;;;;4995548;28;20030;-83
2023/08/27 13:19:05;;;;;;;7.57;5.78;;;36.30;65.40;;;;;;5012782;28;20362;-84
2023/08/27 13:21:30;;;;;;;6.57;5.60;;;36.40;64.80;;;;;;5013503;28;20038;-82
2023/08/27 13:23:56;;;;;;;7.75;5.63;;;36.40;63.40;;;;;;5012746;28;20041;-79
2023/08/27 13:26:22;;;;;;;7.38;5.88;;;36.30;63.10;;;;;;5012785;28;20026;-77
2023/08/27 13:28:48;;;;;;;9.10;6.07;;;36.20;61.80;;;;;;5009254;28;20462;-78
2023/08/27 13:31:14;;;;;;;6.60;5.45;;;36.10;60.50;;;;;;5010400;28;20042;-81
2023/08/27 13:33:39;;;;;;;7.00;6.07;;;35.90;62.00;;;;;;5012038;28;20468;-81